createdAt,value
2022-08-27T00:00:44.893Z,25.75
2022-08-27T00:03:12.411Z,25.51
2022-08-27T00:05:40.042Z,25.66
2022-08-27T00:08:07.767Z,25.70
2022-08-27T00:10:35.244Z,25.49
2022-08-27T00:13:02.657Z,25.43
2022-08-27T00:15:30.004Z,25.32
2022-08-27T00:17:57.470Z,25.42
2022-08-27T00:20:26.030Z,25.53
2022-08-27T00:22:53.422Z,25.25
2022-08-27T00:25:20.982Z,25.37
2022-08-27T00:27:48.204Z,25.41
2022-08-27T00:30:16.654Z,25.22
2022-08-27T00:32:44.351Z,25.16
2022-08-27T00:35:11.975Z,25.14
2022-08-27T00:37:39.173Z,25.01
2022-08-27T00:40:13.504Z,25.21
2022-08-27T00:42:42.501Z,24.99
2022-08-27T00:45:10.213Z,25.06
2022-08-27T00:47:39.772Z,25.09
2022-08-27T00:50:08.799Z,25.01
2022-08-27T00:52:45.325Z,25.06
2022-08-27T00:55:15.060Z,24.91
2022-08-27T00:57:42.802Z,25.04
2022-08-27T01:00:12.050Z,24.90
2022-08-27T01:02:39.329Z,24.83
2022-08-27T01:05:15.429Z,24.88
2022-08-27T01:07:43.497Z,24.77
2022-08-27T01:10:12.865Z,24.63
2022-08-27T01:12:40.078Z,24.82
2022-08-27T01:15:08.719Z,24.63
2022-08-27T01:17:39.045Z,24.34
2022-08-27T01:20:09.378Z,24.78
2022-08-27T01:22:50.358Z,24.74
2022-08-27T01:25:18.007Z,24.77
2022-08-27T01:27:45.450Z,24.79
2022-08-27T01:30:14.793Z,24.81
2022-08-27T01:35:27.553Z,24.66
2022-08-27T01:37:56.972Z,24.48
2022-08-27T01:40:24.639Z,24.64
2022-08-27T01:42:54.337Z,24.58
2022-08-27T01:45:26.819Z,24.53
2022-08-27T01:47:54.278Z,24.65
2022-08-27T01:50:23.532Z,24.37
2022-08-27T01:52:51.095Z,24.45
2022-08-27T01:55:19.562Z,24.51
2022-08-27T01:57:47.117Z,24.45
2022-08-27T02:00:16.431Z,24.58
2022-08-27T02:02:44.568Z,24.42
2022-08-27T02:05:12.200Z,24.27
2022-08-27T02:07:39.640Z,24.38
2022-08-27T02:10:08.452Z,24.41
2022-08-27T02:12:35.655Z,24.22
2022-08-27T02:15:02.944Z,24.16
2022-08-27T02:17:30.457Z,24.21
2022-08-27T02:19:57.675Z,24.29
2022-08-27T02:22:24.899Z,24.12
2022-08-27T02:24:52.427Z,24.13
2022-08-27T02:27:19.835Z,24.16
2022-08-27T02:29:49.760Z,24.09
2022-08-27T02:32:22.439Z,23.97
2022-08-27T02:34:58.962Z,24.13
2022-08-27T02:37:26.584Z,23.85
2022-08-27T02:39:53.851Z,24.16
2022-08-27T02:42:21.181Z,24.05
2022-08-27T02:44:48.674Z,24.10
2022-08-27T02:47:16.861Z,24.03
2022-08-27T02:49:44.492Z,23.92
2022-08-27T02:52:12.719Z,24.03
2022-08-27T02:54:40.624Z,24.00
2022-08-27T02:57:07.881Z,23.87
2022-08-27T02:59:35.499Z,23.99
2022-08-27T03:02:02.785Z,23.85
2022-08-27T03:04:30.120Z,23.79
2022-08-27T03:06:57.876Z,23.85
2022-08-27T03:09:25.168Z,23.84
2022-08-27T03:11:53.631Z,23.84
2022-08-27T03:14:21.158Z,23.94
2022-08-27T03:16:48.422Z,23.89
2022-08-27T03:19:19.872Z,23.79
2022-08-27T03:21:54.821Z,23.75
2022-08-27T03:24:22.291Z,23.73
2022-08-27T03:26:53.824Z,23.60
2022-08-27T03:29:21.616Z,23.62
2022-08-27T03:31:48.906Z,23.60
2022-08-27T03:34:19.790Z,23.60
2022-08-27T03:36:48.979Z,23.73
2022-08-27T03:39:16.168Z,23.54
2022-08-27T03:41:55.459Z,23.45
2022-08-27T03:44:24.011Z,23.49
2022-08-27T03:46:51.690Z,23.52
2022-08-27T03:49:20.442Z,23.42
2022-08-27T03:51:52.401Z,23.35
2022-08-27T03:54:19.612Z,23.40
2022-08-27T03:56:47.092Z,23.38
2022-08-27T03:59:15.828Z,23.39
2022-08-27T04:01:44.379Z,23.44
2022-08-27T04:04:13.142Z,23.19
2022-08-27T04:06:40.762Z,23.48
2022-08-27T04:09:07.996Z,23.16
2022-08-27T04:11:35.473Z,23.35
2022-08-27T04:14:07.595Z,23.15
2022-08-27T04:16:52.584Z,23.37
2022-08-27T04:19:22.869Z,23.20
2022-08-27T04:21:53.019Z,23.28
2022-08-27T04:24:20.228Z,23.23
2022-08-27T04:26:47.902Z,23.30
2022-08-27T04:29:15.385Z,23.32
2022-08-27T04:31:43.291Z,23.40
2022-08-27T04:34:13.178Z,23.40
2022-08-27T04:36:40.610Z,23.39
2022-08-27T04:39:07.821Z,23.37
2022-08-27T04:41:35.104Z,23.31
2022-08-27T04:44:03.731Z,23.48
2022-08-27T04:46:32.359Z,23.51
2022-08-27T04:49:00.714Z,23.48
2022-08-27T04:51:29.078Z,23.57
2022-08-27T04:53:56.714Z,23.57
2022-08-27T04:56:27.403Z,23.55
2022-08-27T04:58:54.631Z,23.50
2022-08-27T05:01:23.006Z,23.53
2022-08-27T05:03:50.534Z,23.56
2022-08-27T05:06:17.836Z,23.69
2022-08-27T05:08:45.212Z,23.72
2022-08-27T05:11:15.156Z,23.78
2022-08-27T05:13:42.877Z,23.81
2022-08-27T05:16:11.567Z,23.82
2022-08-27T05:18:42.207Z,23.92
2022-08-27T05:21:19.389Z,23.91
2022-08-27T05:23:47.683Z,23.98
2022-08-27T05:26:15.162Z,23.98
2022-08-27T05:28:42.394Z,24.10
2022-08-27T05:31:10.597Z,24.17
2022-08-27T05:33:41.255Z,24.26
2022-08-27T05:36:08.905Z,24.38
2022-08-27T05:38:36.409Z,24.33
2022-08-27T05:41:09.175Z,24.38
2022-08-27T05:43:37.136Z,24.51
2022-08-27T05:46:05.826Z,24.54
2022-08-27T05:48:33.863Z,24.67
2022-08-27T05:51:07.402Z,24.66
2022-08-27T05:53:34.633Z,24.82
2022-08-27T05:56:02.109Z,24.90
2022-08-27T05:58:49.401Z,24.92
2022-08-27T06:01:17.517Z,24.93
2022-08-27T06:03:46.512Z,25.09
2022-08-27T06:06:14.456Z,25.12
2022-08-27T06:08:41.679Z,25.23
2022-08-27T06:11:10.259Z,25.29
2022-08-27T06:13:37.641Z,25.34
2022-08-27T06:16:07.258Z,25.41
2022-08-27T06:18:35.199Z,25.48
2022-08-27T06:21:02.383Z,25.54
2022-08-27T06:23:29.603Z,25.66
2022-08-27T06:25:57.332Z,25.72
2022-08-27T06:28:29.607Z,25.81
2022-08-27T06:31:04.215Z,26.02
2022-08-27T06:33:31.443Z,26.25
2022-08-27T06:36:00.246Z,26.48
2022-08-27T06:38:27.642Z,26.92
2022-08-27T06:40:55.887Z,27.24
2022-08-27T06:43:25.161Z,27.66
2022-08-27T06:45:52.876Z,28.02
2022-08-27T06:48:21.386Z,28.49
2022-08-27T06:50:48.879Z,28.67
2022-08-27T06:53:16.423Z,28.96
2022-08-27T06:55:44.714Z,29.29
2022-08-27T06:58:12.758Z,29.58
2022-08-27T07:00:40.210Z,29.69
2022-08-27T07:03:07.400Z,29.95
2022-08-27T07:05:35.642Z,30.10
2022-08-27T07:08:03.359Z,29.89
2022-08-27T07:10:31.949Z,30.09
2022-08-27T07:12:59.921Z,30.07
2022-08-27T07:15:27.266Z,30.23
2022-08-27T07:17:57.113Z,30.28
2022-08-27T07:20:25.405Z,30.66
2022-08-27T07:22:54.347Z,30.49
2022-08-27T07:25:21.621Z,30.75
2022-08-27T07:27:49.396Z,30.76
2022-08-27T07:30:17.170Z,31.08
2022-08-27T07:32:44.975Z,30.62
2022-08-27T07:35:12.723Z,30.79
2022-08-27T07:37:40.336Z,31.02
2022-08-27T07:40:12.332Z,31.03
2022-08-27T07:43:00.189Z,30.83
2022-08-27T07:45:27.720Z,31.28
2022-08-27T07:47:55.191Z,31.54
2022-08-27T07:50:23.578Z,31.72
2022-08-27T07:52:51.357Z,31.82
2022-08-27T07:55:18.839Z,31.91
2022-08-27T07:57:48.043Z,32.12
2022-08-27T08:00:15.542Z,32.20
2022-08-27T08:02:44.978Z,32.63
2022-08-27T08:05:12.739Z,32.41
2022-08-27T08:07:39.925Z,32.38
2022-08-27T08:10:07.617Z,32.68
2022-08-27T08:12:36.147Z,32.61
2022-08-27T08:15:04.019Z,32.90
2022-08-27T08:17:32.517Z,33.08
2022-08-27T08:20:18.463Z,33.09
2022-08-27T08:22:47.766Z,33.31
2022-08-27T08:25:15.528Z,33.06
2022-08-27T08:27:42.709Z,33.34
2022-08-27T08:30:10.816Z,33.42
2022-08-27T08:32:38.431Z,33.69
2022-08-27T08:35:06.334Z,33.34
2022-08-27T08:37:33.650Z,33.74
2022-08-27T08:40:01.163Z,33.96
2022-08-27T08:42:30.159Z,33.89
2022-08-27T08:44:58.046Z,33.68
2022-08-27T08:47:27.205Z,33.45
2022-08-27T08:49:57.343Z,33.46
2022-08-27T08:52:31.571Z,33.72
2022-08-27T08:55:01.610Z,33.95
2022-08-27T08:57:31.097Z,33.96
2022-08-27T09:00:02.518Z,34.09
2022-08-27T09:02:30.149Z,34.36
2022-08-27T09:04:57.499Z,34.37
2022-08-27T09:07:30.573Z,34.14
2022-08-27T09:10:05.875Z,34.43
2022-08-27T09:12:33.526Z,34.56
2022-08-27T09:15:02.146Z,34.48
2022-08-27T09:17:32.622Z,34.45
2022-08-27T09:19:59.845Z,34.82
2022-08-27T09:22:48.861Z,34.53
2022-08-27T09:25:22.157Z,34.78
2022-08-27T09:27:53.517Z,35.04
2022-08-27T09:30:28.590Z,35.04
2022-08-27T09:33:01.477Z,35.05
2022-08-27T09:35:29.434Z,34.98
2022-08-27T09:37:57.806Z,34.48
2022-08-27T09:40:29.733Z,34.12
2022-08-27T09:42:57.549Z,34.54
2022-08-27T09:45:26.798Z,34.57
2022-08-27T09:47:53.951Z,34.59
2022-08-27T09:50:22.328Z,34.49
2022-08-27T09:52:55.182Z,34.82
2022-08-27T09:55:34.668Z,34.74
2022-08-27T09:58:03.649Z,34.40
2022-08-27T10:00:36.396Z,34.26
2022-08-27T10:03:05.192Z,34.58
2022-08-27T10:05:36.493Z,34.02
2022-08-27T10:08:19.822Z,34.20
2022-08-27T10:10:58.619Z,34.27
2022-08-27T10:13:34.306Z,34.54
2022-08-27T10:16:29.528Z,34.85
2022-08-27T10:19:03.021Z,34.37
2022-08-27T10:21:41.928Z,35.05
2022-08-27T10:24:29.150Z,34.98
2022-08-27T10:27:16.125Z,34.97
2022-08-27T10:29:46.547Z,35.17
2022-08-27T10:32:34.118Z,35.50
2022-08-27T10:35:05.000Z,35.55
2022-08-27T10:37:36.801Z,35.55
2022-08-27T10:40:16.943Z,35.81
2022-08-27T10:42:57.617Z,35.99
2022-08-27T10:45:34.852Z,35.89
2022-08-27T10:48:06.990Z,36.01
2022-08-27T10:50:34.470Z,35.95
2022-08-27T10:53:12.116Z,35.65
2022-08-27T10:55:43.456Z,35.71
2022-08-27T10:58:29.150Z,36.11
2022-08-27T11:00:58.725Z,36.08
2022-08-27T11:03:25.992Z,36.27
2022-08-27T11:06:03.883Z,36.16
2022-08-27T11:08:45.027Z,36.35
2022-08-27T11:11:51.742Z,36.57
2022-08-27T11:14:01.192Z,36.04
2022-08-27T11:16:45.638Z,36.27
2022-08-27T11:19:15.266Z,36.49
2022-08-27T11:21:42.720Z,36.63
2022-08-27T11:24:12.890Z,36.66
2022-08-27T11:26:40.167Z,36.59
2022-08-27T11:29:22.239Z,36.73
2022-08-27T11:32:01.434Z,36.58
2022-08-27T11:34:41.146Z,36.35
2022-08-27T11:37:27.919Z,36.64
2022-08-27T11:40:02.598Z,36.78
2022-08-27T11:42:43.951Z,36.85
2022-08-27T11:45:20.626Z,36.82
2022-08-27T11:47:51.644Z,36.81
2022-08-27T11:50:19.962Z,36.50
2022-08-27T11:52:54.865Z,36.39
2022-08-27T11:55:22.267Z,36.84
2022-08-27T11:57:50.532Z,36.86
2022-08-27T12:00:21.032Z,37.04
2022-08-27T12:03:02.333Z,36.88
2022-08-27T12:05:52.984Z,36.88
2022-08-27T12:08:21.831Z,36.90
2022-08-27T12:10:52.444Z,36.90
2022-08-27T12:13:36.097Z,36.69
2022-08-27T12:16:12.765Z,36.51
2022-08-27T12:18:51.619Z,36.83
2022-08-27T12:21:28.450Z,36.87
2022-08-27T12:24:07.776Z,36.75
2022-08-27T12:26:36.061Z,36.85
2022-08-27T12:29:18.289Z,36.38
2022-08-27T12:31:48.333Z,36.48
2022-08-27T12:34:16.006Z,36.64
2022-08-27T12:36:50.198Z,36.78
2022-08-27T12:39:18.730Z,36.74
2022-08-27T12:41:46.711Z,36.90
2022-08-27T12:44:15.987Z,36.84
2022-08-27T12:46:53.393Z,36.63
2022-08-27T12:49:38.949Z,36.93
2022-08-27T12:52:14.079Z,36.98
2022-08-27T12:55:09.032Z,36.85
2022-08-27T12:57:45.288Z,36.98
2022-08-27T13:00:19.141Z,37.03
2022-08-27T13:03:06.981Z,36.85
2022-08-27T13:05:45.347Z,36.96
2022-08-27T13:08:23.276Z,36.97
2022-08-27T13:10:51.058Z,36.90
2022-08-27T13:13:22.469Z,36.50
2022-08-27T13:15:56.957Z,36.65
2022-08-27T13:18:24.605Z,36.51
2022-08-27T13:21:23.358Z,36.91
2022-08-27T13:23:54.204Z,36.93
2022-08-27T13:26:22.458Z,36.60
2022-08-27T13:28:49.768Z,36.79
2022-08-27T13:31:17.272Z,35.58
2022-08-27T13:33:44.508Z,35.85
2022-08-27T13:36:12.377Z,35.82
2022-08-27T13:38:49.333Z,36.12
2022-08-27T13:41:33.826Z,35.49
2022-08-27T13:44:27.703Z,35.85
2022-08-27T13:47:01.207Z,35.26
2022-08-27T13:49:32.373Z,35.65
2022-08-27T13:52:01.779Z,35.89
2022-08-27T13:54:29.741Z,35.81
2022-08-27T13:56:58.613Z,36.02
2022-08-27T13:59:26.774Z,35.65
2022-08-27T14:01:59.228Z,35.46
2022-08-27T14:04:34.201Z,35.06
2022-08-27T14:07:06.537Z,34.37
2022-08-27T14:09:34.019Z,34.72
2022-08-27T14:12:02.132Z,35.34
2022-08-27T14:14:30.469Z,35.22
2022-08-27T14:16:59.264Z,35.18
2022-08-27T14:19:28.022Z,35.06
2022-08-27T14:21:56.015Z,35.31
2022-08-27T14:24:24.043Z,34.89
2022-08-27T14:26:52.066Z,34.92
2022-08-27T14:29:19.619Z,35.11
2022-08-27T14:31:47.439Z,35.28
2022-08-27T14:34:14.811Z,35.25
2022-08-27T14:36:42.134Z,35.42
2022-08-27T14:39:09.884Z,35.54
2022-08-27T14:41:37.687Z,35.45
2022-08-27T14:44:06.195Z,35.45
2022-08-27T14:46:35.985Z,35.56
2022-08-27T14:49:11.503Z,35.67
2022-08-27T14:51:39.362Z,35.65
2022-08-27T14:54:06.768Z,35.63
2022-08-27T14:56:34.008Z,35.50
2022-08-27T14:59:01.497Z,35.52
2022-08-27T15:01:29.462Z,35.39
2022-08-27T15:03:56.787Z,35.36
2022-08-27T15:06:25.178Z,35.48
2022-08-27T15:08:53.666Z,35.40
2022-08-27T15:11:24.957Z,35.49
2022-08-27T15:13:52.722Z,35.33
2022-08-27T15:16:27.286Z,35.12
2022-08-27T15:19:00.965Z,35.23
2022-08-27T15:21:28.934Z,35.07
2022-08-27T15:24:04.002Z,34.29
2022-08-27T15:26:31.674Z,34.40
2022-08-27T15:29:02.787Z,34.81
2022-08-27T15:31:32.999Z,34.92
2022-08-27T15:34:00.510Z,34.90
2022-08-27T15:36:27.825Z,34.77
2022-08-27T15:38:55.276Z,34.75
2022-08-27T15:41:26.126Z,34.59
2022-08-27T15:43:55.858Z,34.79
2022-08-27T15:46:23.507Z,34.82
2022-08-27T15:48:50.801Z,34.67
2022-08-27T15:51:18.278Z,34.57
2022-08-27T15:53:45.775Z,34.44
2022-08-27T15:56:12.969Z,34.63
2022-08-27T15:58:41.248Z,34.58
2022-08-27T16:01:10.205Z,34.40
2022-08-27T16:03:37.699Z,34.25
2022-08-27T16:06:05.380Z,34.15
2022-08-27T16:08:36.636Z,34.15
2022-08-27T16:11:06.855Z,34.18
2022-08-27T16:13:34.415Z,33.89
2022-08-27T16:16:24.285Z,33.92
2022-08-27T16:18:51.783Z,33.85
2022-08-27T16:21:19.278Z,33.87
2022-08-27T16:23:46.661Z,33.89
2022-08-27T16:26:14.143Z,33.89
2022-08-27T16:28:41.292Z,33.72
2022-08-27T16:31:12.157Z,33.71
2022-08-27T16:33:40.980Z,33.66
2022-08-27T16:36:08.211Z,33.62
2022-08-27T16:38:36.107Z,33.67
2022-08-27T16:41:03.691Z,33.58
2022-08-27T16:43:30.859Z,33.46
2022-08-27T16:45:59.579Z,33.38
2022-08-27T16:48:46.261Z,33.28
2022-08-27T16:51:17.711Z,33.23
2022-08-27T16:53:47.454Z,33.14
2022-08-27T16:56:16.989Z,33.01
2022-08-27T16:58:49.740Z,32.96
2022-08-27T17:01:18.192Z,32.86
2022-08-27T17:04:07.662Z,32.75
2022-08-27T17:06:34.580Z,32.71
2022-08-27T17:09:05.323Z,32.64
2022-08-27T17:11:32.902Z,32.38
2022-08-27T17:14:02.329Z,32.42
2022-08-27T17:16:30.320Z,32.38
2022-08-27T17:18:58.438Z,32.31
2022-08-27T17:21:29.686Z,32.34
2022-08-27T17:23:59.430Z,32.30
2022-08-27T17:26:27.187Z,32.25
2022-08-27T17:28:54.480Z,32.17
2022-08-27T17:31:27.900Z,31.98
2022-08-27T17:33:58.137Z,31.95
2022-08-27T17:36:27.128Z,31.82
2022-08-27T17:38:56.025Z,31.70
2022-08-27T17:41:23.522Z,31.69
2022-08-27T17:43:50.674Z,31.59
2022-08-27T17:46:17.943Z,31.39
2022-08-27T17:48:45.379Z,31.38
2022-08-27T17:51:12.669Z,31.39
2022-08-27T17:53:48.009Z,31.33
2022-08-27T17:56:16.209Z,31.27
2022-08-27T17:58:44.837Z,31.16
2022-08-27T18:01:12.093Z,31.03
2022-08-27T18:03:44.440Z,30.99
2022-08-27T18:06:15.711Z,30.90
2022-08-27T18:08:43.176Z,30.89
2022-08-27T18:11:11.150Z,30.81
2022-08-27T18:13:38.491Z,30.73
2022-08-27T18:16:06.508Z,30.50
2022-08-27T18:18:35.168Z,30.56
2022-08-27T18:21:02.381Z,30.53
2022-08-27T18:23:30.308Z,30.44
2022-08-27T18:25:57.876Z,30.42
2022-08-27T18:28:25.357Z,30.42
2022-08-27T18:30:52.836Z,30.41
2022-08-27T18:33:20.037Z,30.29
2022-08-27T18:35:47.966Z,30.33
2022-08-27T18:38:16.179Z,30.27
2022-08-27T18:40:48.182Z,30.22
2022-08-27T18:43:16.428Z,30.24
2022-08-27T18:45:45.031Z,30.19
2022-08-27T18:48:19.381Z,30.18
2022-08-27T18:50:50.236Z,30.12
2022-08-27T18:53:20.125Z,30.11
2022-08-27T18:55:57.648Z,30.05
2022-08-27T18:58:25.703Z,30.00
2022-08-27T19:00:55.051Z,29.80
2022-08-27T19:03:28.253Z,29.72
2022-08-27T19:05:56.449Z,29.74
2022-08-27T19:08:25.444Z,29.60
2022-08-27T19:10:53.222Z,29.59
2022-08-27T19:13:21.450Z,29.56
2022-08-27T19:15:54.024Z,29.56
2022-08-27T19:18:25.899Z,29.57
2022-08-27T19:20:56.229Z,29.53
2022-08-27T19:23:24.529Z,29.58
2022-08-27T19:25:52.378Z,29.53
2022-08-27T19:28:25.263Z,29.55
2022-08-27T19:30:53.683Z,29.51
2022-08-27T19:33:23.722Z,29.60
2022-08-27T19:35:57.237Z,29.48
2022-08-27T19:38:25.373Z,29.57
2022-08-27T19:40:56.923Z,29.58
2022-08-27T19:43:24.952Z,29.52
2022-08-27T19:45:54.900Z,29.32
2022-08-27T19:48:22.576Z,29.40
2022-08-27T19:50:52.343Z,29.39
2022-08-27T19:53:20.075Z,29.31
2022-08-27T19:55:48.427Z,29.32
2022-08-27T19:58:17.702Z,29.32
2022-08-27T20:00:45.951Z,29.23
2022-08-27T20:03:15.854Z,29.20
2022-08-27T20:05:43.972Z,29.13
2022-08-27T20:08:12.878Z,29.19
2022-08-27T20:10:41.159Z,29.13
2022-08-27T20:13:08.574Z,29.08
2022-08-27T20:15:39.896Z,28.96
2022-08-27T20:18:10.334Z,29.00
2022-08-27T20:20:37.635Z,28.86
2022-08-27T20:23:05.315Z,28.80
2022-08-27T20:25:33.477Z,28.72
2022-08-27T20:28:16.269Z,28.79
2022-08-27T20:30:49.037Z,28.71
2022-08-27T20:33:16.832Z,28.70
2022-08-27T20:35:44.091Z,28.65
2022-08-27T20:38:11.719Z,28.51
2022-08-27T20:40:39.135Z,28.46
2022-08-27T20:43:06.328Z,28.51
2022-08-27T20:45:37.674Z,28.55
2022-08-27T20:48:05.471Z,28.38
2022-08-27T20:50:32.870Z,28.36
2022-08-27T20:53:00.832Z,28.28
2022-08-27T20:55:28.278Z,28.26
2022-08-27T20:58:14.105Z,28.25
2022-08-27T21:00:42.259Z,28.25
2022-08-27T21:03:10.041Z,28.15
2022-08-27T21:05:37.498Z,28.10
2022-08-27T21:08:05.487Z,28.02
2022-08-27T21:10:32.833Z,27.89
2022-08-27T21:13:03.371Z,27.88
2022-08-27T21:15:32.392Z,27.89
2022-08-27T21:17:59.570Z,27.73
2022-08-27T21:20:26.777Z,27.67
2022-08-27T21:22:57.715Z,27.72
2022-08-27T21:25:25.389Z,27.64
2022-08-27T21:27:52.774Z,27.76
2022-08-27T21:30:21.421Z,27.61
2022-08-27T21:32:48.865Z,27.63
2022-08-27T21:35:16.365Z,27.75
2022-08-27T21:37:43.811Z,27.74
2022-08-27T21:40:11.207Z,27.66
2022-08-27T21:42:38.401Z,27.61
2022-08-27T21:45:06.093Z,27.70
2022-08-27T21:47:33.265Z,27.66
2022-08-27T21:50:00.723Z,27.59
2022-08-27T21:52:29.573Z,27.72
2022-08-27T21:54:57.043Z,27.66
2022-08-27T21:57:24.225Z,27.61
2022-08-27T21:59:51.612Z,27.58
2022-08-27T22:05:08.584Z,27.67
2022-08-27T22:07:35.756Z,27.71
2022-08-27T22:10:02.982Z,27.66
2022-08-27T22:12:30.418Z,27.76
2022-08-27T22:14:57.555Z,27.55
2022-08-27T22:17:24.744Z,27.73
2022-08-27T22:19:52.167Z,27.66
2022-08-27T22:22:19.347Z,27.53
2022-08-27T22:24:46.525Z,27.53
2022-08-27T22:27:13.951Z,27.44
2022-08-27T22:29:41.092Z,27.36
2022-08-27T22:32:08.257Z,27.47
2022-08-27T22:34:35.790Z,27.43
2022-08-27T22:37:03.326Z,27.46
2022-08-27T22:39:30.743Z,27.40
2022-08-27T22:41:58.449Z,27.41
2022-08-27T22:44:29.318Z,27.39
2022-08-27T22:46:56.753Z,27.31
2022-08-27T22:49:24.346Z,27.27
2022-08-27T22:51:51.520Z,27.29
2022-08-27T22:54:18.896Z,27.23
2022-08-27T22:56:46.338Z,27.27
2022-08-27T22:59:13.622Z,27.19
2022-08-27T23:01:40.804Z,27.19
2022-08-27T23:04:08.434Z,27.00
2022-08-27T23:06:35.688Z,27.01
2022-08-27T23:09:04.210Z,27.06
2022-08-27T23:11:31.894Z,27.06
2022-08-27T23:13:59.516Z,27.02
2022-08-27T23:16:27.229Z,26.82
2022-08-27T23:18:54.733Z,26.82
2022-08-27T23:21:21.953Z,26.95
2022-08-27T23:23:49.099Z,26.68
2022-08-27T23:26:35.019Z,26.82
2022-08-27T23:29:04.468Z,26.79
2022-08-27T23:31:31.967Z,26.86
2022-08-27T23:33:59.867Z,26.61
2022-08-27T23:36:29.305Z,26.18
2022-08-27T23:38:58.367Z,26.29
2022-08-27T23:41:26.433Z,26.79
2022-08-27T23:43:54.294Z,27.00
2022-08-27T23:46:21.761Z,27.09
2022-08-27T23:48:48.936Z,27.15
2022-08-27T23:51:16.075Z,27.29
2022-08-27T23:53:43.505Z,27.09
2022-08-27T23:56:11.029Z,27.32
2022-08-27T23:58:38.252Z,27.25
